createdAt,value
2018-03-31T00:01:13.109Z,60.71
2018-03-31T00:03:39.863Z,60.84
2018-03-31T00:06:07.277Z,60.84
2018-03-31T00:08:34.083Z,60.15
2018-03-31T00:11:00.562Z,60.41
2018-03-31T00:13:27.047Z,60.74
2018-03-31T00:15:53.708Z,60.95
2018-03-31T00:18:20.239Z,61.26
2018-03-31T00:20:46.726Z,61.05
2018-03-31T00:23:14.086Z,60.77
2018-03-31T00:25:40.732Z,60.21
2018-03-31T00:28:07.229Z,60.51
2018-03-31T00:30:33.779Z,60.29
2018-03-31T00:33:01.062Z,60.20
2018-03-31T00:35:27.533Z,60.15
2018-03-31T00:37:54.153Z,59.95
2018-03-31T00:40:20.631Z,60.29
2018-03-31T00:42:47.126Z,60.28
2018-03-31T00:45:13.801Z,61.53
2018-03-31T00:47:40.332Z,61.39
2018-03-31T00:50:06.813Z,62.12
2018-03-31T00:52:33.551Z,61.72
2018-03-31T00:55:00.788Z,61.86
2018-03-31T00:57:28.074Z,61.84
2018-03-31T00:59:54.745Z,61.97
2018-03-31T01:02:21.210Z,61.06
2018-03-31T01:04:47.692Z,61.41
2018-03-31T01:07:14.496Z,61.62
2018-03-31T01:09:40.994Z,61.75
2018-03-31T01:12:07.490Z,61.36
2018-03-31T01:14:34.201Z,61.12
2018-03-31T01:17:00.682Z,61.19
2018-03-31T01:19:27.580Z,61.02
2018-03-31T01:21:54.261Z,61.63
2018-03-31T01:24:20.752Z,61.03
2018-03-31T01:26:47.391Z,61.09
2018-03-31T01:29:14.082Z,61.05
2018-03-31T01:31:40.562Z,62.06
2018-03-31T01:34:07.123Z,62.71
2018-03-31T01:36:33.810Z,63.69
2018-03-31T01:39:00.302Z,62.90
2018-03-31T01:41:26.823Z,63.78
2018-03-31T01:43:53.458Z,64.50
2018-03-31T01:46:19.947Z,64.46
2018-03-31T01:48:46.409Z,65.12
2018-03-31T01:51:12.951Z,64.70
2018-03-31T01:53:39.491Z,64.65
2018-03-31T01:56:06.178Z,65.66
2018-03-31T01:58:33.635Z,67.31
2018-03-31T02:01:00.869Z,69.21
2018-03-31T02:03:27.399Z,71.93
2018-03-31T02:05:54.162Z,73.41
2018-03-31T02:08:21.447Z,75.53
2018-03-31T02:10:47.934Z,77.57
2018-03-31T02:13:14.448Z,77.88
2018-03-31T02:15:40.936Z,78.78
2018-03-31T02:18:07.468Z,78.45
2018-03-31T02:20:34.106Z,77.68
2018-03-31T02:23:01.324Z,78.35
2018-03-31T02:25:27.831Z,79.22
2018-03-31T02:27:54.506Z,78.25
2018-03-31T02:30:20.991Z,79.36
2018-03-31T02:32:47.522Z,80.00
2018-03-31T02:35:14.109Z,79.13
2018-03-31T02:37:40.930Z,81.14
2018-03-31T02:40:07.460Z,81.02
2018-03-31T02:42:34.104Z,81.67
2018-03-31T02:45:00.579Z,82.07
2018-03-31T02:47:27.802Z,81.77
2018-03-31T02:49:54.413Z,81.49
2018-03-31T02:52:20.998Z,81.80
2018-03-31T02:54:47.472Z,81.48
2018-03-31T02:57:14.883Z,82.52
2018-03-31T02:59:41.404Z,81.89
2018-03-31T03:02:07.896Z,82.05
2018-03-31T03:04:35.215Z,82.37
2018-03-31T03:07:01.729Z,82.11
2018-03-31T03:09:28.290Z,82.54
2018-03-31T03:11:54.957Z,82.53
2018-03-31T03:14:22.223Z,82.80
2018-03-31T03:16:49.500Z,82.79
2018-03-31T03:19:16.052Z,82.96
2018-03-31T03:21:42.584Z,82.64
2018-03-31T03:24:09.056Z,82.08
2018-03-31T03:26:35.698Z,81.75
2018-03-31T03:29:02.190Z,82.85
2018-03-31T03:31:28.674Z,83.60
2018-03-31T03:33:56.067Z,83.34
2018-03-31T03:36:22.621Z,83.49
2018-03-31T03:38:49.141Z,82.91
2018-03-31T03:41:15.701Z,82.29
2018-03-31T03:43:43.020Z,82.45
2018-03-31T03:46:10.294Z,83.27
2018-03-31T03:48:36.826Z,83.11
2018-03-31T03:51:03.348Z,82.98
2018-03-31T03:53:30.611Z,83.72
2018-03-31T03:55:57.267Z,83.39
2018-03-31T03:58:23.755Z,82.83
2018-03-31T04:00:50.226Z,83.87
2018-03-31T04:03:16.909Z,83.16
2018-03-31T04:05:43.394Z,83.00
2018-03-31T04:08:10.253Z,84.05
2018-03-31T04:10:36.997Z,84.48
2018-03-31T04:13:03.512Z,84.30
2018-03-31T04:15:30.039Z,84.03
2018-03-31T04:17:57.291Z,83.93
2018-03-31T04:20:24.501Z,84.67
2018-03-31T04:22:50.975Z,84.90
2018-03-31T04:25:17.549Z,84.24
2018-03-31T04:27:44.085Z,83.58
2018-03-31T04:30:10.571Z,84.61
2018-03-31T04:32:37.085Z,84.41
2018-03-31T04:35:03.563Z,84.87
2018-03-31T04:37:30.833Z,84.18
2018-03-31T04:39:58.106Z,85.12
2018-03-31T04:42:24.607Z,84.81
2018-03-31T04:44:51.822Z,84.80
2018-03-31T04:47:18.544Z,85.29
2018-03-31T04:49:45.030Z,85.41
2018-03-31T04:52:12.300Z,85.52
2018-03-31T04:54:39.617Z,85.59
2018-03-31T04:57:06.089Z,86.10
2018-03-31T04:59:33.314Z,85.32
2018-03-31T05:01:59.972Z,86.11
2018-03-31T05:04:27.296Z,85.90
2018-03-31T05:06:53.815Z,85.78
2018-03-31T05:09:20.461Z,85.59
2018-03-31T05:11:46.980Z,85.45
2018-03-31T05:14:13.495Z,86.26
2018-03-31T05:16:40.147Z,85.39
2018-03-31T05:19:06.686Z,85.88
2018-03-31T05:21:33.207Z,85.95
2018-03-31T05:23:59.899Z,86.49
2018-03-31T05:26:26.408Z,84.98
2018-03-31T05:28:52.934Z,85.59
2018-03-31T05:31:20.007Z,85.14
2018-03-31T05:33:46.508Z,84.95
2018-03-31T05:36:13.045Z,85.23
2018-03-31T05:38:39.587Z,84.65
2018-03-31T05:41:06.068Z,85.72
2018-03-31T05:43:32.537Z,85.72
2018-03-31T05:45:59.108Z,84.74
2018-03-31T05:48:25.592Z,85.17
2018-03-31T05:50:52.082Z,84.19
2018-03-31T05:53:18.754Z,84.53
2018-03-31T05:55:45.248Z,85.10
2018-03-31T05:58:11.726Z,84.62
2018-03-31T06:00:38.396Z,84.35
2018-03-31T06:03:05.623Z,84.27
2018-03-31T06:05:32.163Z,84.20
2018-03-31T06:07:58.930Z,83.91
2018-03-31T06:10:26.191Z,84.06
2018-03-31T06:12:53.436Z,83.94
2018-03-31T06:15:20.885Z,83.81
2018-03-31T06:17:47.441Z,84.36
2018-03-31T06:20:14.709Z,83.71
2018-03-31T06:22:41.336Z,82.98
2018-03-31T06:25:08.550Z,82.92
2018-03-31T06:27:35.033Z,83.03
2018-03-31T06:30:01.562Z,81.53
2018-03-31T06:32:28.805Z,82.46
2018-03-31T06:34:56.021Z,83.27
2018-03-31T06:37:22.614Z,83.05
2018-03-31T06:39:49.821Z,83.13
2018-03-31T06:42:16.331Z,83.44
2018-03-31T06:44:48.956Z,83.12
2018-03-31T06:47:15.439Z,83.12
2018-03-31T06:49:41.990Z,83.43
2018-03-31T06:52:08.498Z,84.27
2018-03-31T06:54:34.982Z,84.69
2018-03-31T06:57:01.458Z,84.11
2018-03-31T06:59:28.721Z,84.22
2018-03-31T07:01:55.242Z,83.45
2018-03-31T07:04:22.466Z,85.06
2018-03-31T07:06:49.222Z,85.26
2018-03-31T07:09:15.689Z,84.91
2018-03-31T07:11:42.171Z,85.34
2018-03-31T07:14:08.836Z,84.29
2018-03-31T07:16:36.092Z,83.96
2018-03-31T07:19:02.573Z,84.00
2018-03-31T07:21:29.262Z,83.73
2018-03-31T07:23:55.742Z,83.57
2018-03-31T07:26:22.227Z,83.36
2018-03-31T07:28:48.920Z,83.39
2018-03-31T07:31:15.413Z,84.18
2018-03-31T07:33:41.876Z,83.87
2018-03-31T07:36:08.582Z,82.35
2018-03-31T07:38:35.063Z,81.34
2018-03-31T07:41:01.542Z,82.35
2018-03-31T07:43:28.194Z,82.64
2018-03-31T07:45:54.712Z,82.04
2018-03-31T07:48:21.238Z,82.18
2018-03-31T07:50:47.761Z,82.66
2018-03-31T07:53:14.233Z,82.49
2018-03-31T07:55:40.708Z,82.39
2018-03-31T07:58:07.427Z,82.20
2018-03-31T08:00:34.679Z,82.30
2018-03-31T08:03:01.893Z,82.22
2018-03-31T08:05:28.675Z,81.89
2018-03-31T08:07:55.927Z,81.47
2018-03-31T08:10:22.440Z,81.35
2018-03-31T08:12:49.082Z,82.39
2018-03-31T08:15:15.569Z,81.54
2018-03-31T08:17:42.047Z,81.58
2018-03-31T08:20:08.724Z,81.29
2018-03-31T08:22:35.943Z,82.00
2018-03-31T08:25:02.410Z,81.96
2018-03-31T08:27:29.783Z,81.66
2018-03-31T08:29:56.325Z,81.06
2018-03-31T08:32:22.789Z,81.27
2018-03-31T08:34:49.354Z,80.76
2018-03-31T08:37:15.883Z,81.16
2018-03-31T08:39:42.366Z,81.14
2018-03-31T08:42:08.994Z,81.03
2018-03-31T08:44:35.492Z,81.39
2018-03-31T08:47:02.055Z,80.47
2018-03-31T08:49:29.475Z,79.45
2018-03-31T08:51:55.959Z,80.55
2018-03-31T08:54:23.179Z,81.39
2018-03-31T08:56:49.888Z,81.59
2018-03-31T08:59:16.375Z,79.72
2018-03-31T09:01:42.861Z,79.45
2018-03-31T09:04:09.547Z,81.06
2018-03-31T09:06:36.117Z,79.47
2018-03-31T09:09:02.647Z,79.49
2018-03-31T09:11:30.034Z,80.39
2018-03-31T09:13:57.296Z,80.31
2018-03-31T09:16:23.765Z,79.29
2018-03-31T09:18:50.511Z,78.90
2018-03-31T09:21:17.739Z,79.55
2018-03-31T09:23:44.258Z,79.24
2018-03-31T09:26:10.924Z,80.09
2018-03-31T09:28:37.431Z,79.12
2018-03-31T09:31:03.911Z,78.82
2018-03-31T09:33:30.720Z,78.97
2018-03-31T09:35:57.197Z,78.59
2018-03-31T09:38:24.418Z,79.10
2018-03-31T09:40:51.082Z,78.01
2018-03-31T09:43:17.558Z,79.02
2018-03-31T09:45:44.033Z,79.73
2018-03-31T09:48:10.713Z,78.77
2018-03-31T09:50:37.276Z,77.75
2018-03-31T09:53:03.745Z,77.00
2018-03-31T09:55:30.255Z,77.26
2018-03-31T09:57:57.087Z,77.19
2018-03-31T10:00:29.564Z,76.65
2018-03-31T10:02:56.074Z,76.66
2018-03-31T10:05:23.337Z,77.57
2018-03-31T10:07:50.068Z,77.18
2018-03-31T10:10:17.283Z,76.52
2018-03-31T10:12:43.784Z,76.10
2018-03-31T10:15:10.468Z,77.18
2018-03-31T10:17:36.976Z,75.99
2018-03-31T10:20:03.449Z,77.52
2018-03-31T10:22:30.058Z,77.34
2018-03-31T10:24:56.583Z,76.73
2018-03-31T10:27:23.057Z,76.96
2018-03-31T10:29:49.600Z,76.18
2018-03-31T10:32:16.077Z,76.23
2018-03-31T10:34:42.599Z,76.78
2018-03-31T10:37:09.232Z,76.44
2018-03-31T10:39:36.502Z,75.53
2018-03-31T10:42:03.310Z,75.26
2018-03-31T10:44:30.062Z,75.49
2018-03-31T10:46:57.343Z,76.11
2018-03-31T10:49:23.814Z,76.06
2018-03-31T10:51:51.223Z,75.66
2018-03-31T10:54:17.718Z,74.58
2018-03-31T10:56:44.202Z,75.53
2018-03-31T10:59:10.815Z,74.68
2018-03-31T11:01:37.285Z,74.20
2018-03-31T11:04:03.761Z,75.21
2018-03-31T11:06:30.278Z,73.75
2018-03-31T11:08:56.794Z,75.53
2018-03-31T11:11:23.264Z,73.02
2018-03-31T11:13:49.888Z,73.88
2018-03-31T11:16:16.368Z,73.89
2018-03-31T11:18:43.581Z,73.61
2018-03-31T11:21:10.905Z,74.31
2018-03-31T11:23:37.425Z,73.32
2018-03-31T11:26:04.638Z,73.75
2018-03-31T11:28:31.386Z,74.20
2018-03-31T11:30:57.911Z,73.73
2018-03-31T11:33:24.400Z,73.13
2018-03-31T11:35:50.939Z,72.98
2018-03-31T11:38:17.429Z,73.01
2018-03-31T11:40:43.961Z,72.89
2018-03-31T11:43:10.647Z,73.84
2018-03-31T11:45:37.872Z,72.87
2018-03-31T11:48:04.351Z,73.61
2018-03-31T11:50:31.015Z,72.39
2018-03-31T11:52:58.305Z,73.59
2018-03-31T11:55:24.788Z,72.86
2018-03-31T11:57:51.311Z,74.16
2018-03-31T12:00:17.838Z,73.33
2018-03-31T12:02:44.320Z,73.69
2018-03-31T12:05:10.998Z,73.34
2018-03-31T12:07:38.217Z,74.28
2018-03-31T12:10:04.713Z,74.05
2018-03-31T12:12:31.420Z,73.19
2018-03-31T12:14:57.906Z,73.05
2018-03-31T12:17:24.391Z,73.51
2018-03-31T12:19:51.057Z,74.65
2018-03-31T12:22:17.573Z,74.44
2018-03-31T12:24:44.101Z,74.11
2018-03-31T12:27:10.797Z,74.84
2018-03-31T12:29:38.011Z,75.49
2018-03-31T12:32:05.276Z,73.75
2018-03-31T12:34:31.999Z,74.65
2018-03-31T12:36:59.254Z,74.26
2018-03-31T12:39:26.485Z,74.61
2018-03-31T12:41:53.119Z,74.97
2018-03-31T12:44:19.744Z,74.86
2018-03-31T12:46:46.236Z,75.24
2018-03-31T12:49:13.598Z,75.49
2018-03-31T12:51:40.117Z,75.42
2018-03-31T12:54:07.374Z,75.16
2018-03-31T12:56:34.857Z,76.05
2018-03-31T12:59:01.755Z,75.68
2018-03-31T13:01:28.994Z,75.99
2018-03-31T13:03:55.762Z,75.79
2018-03-31T13:06:22.986Z,76.31
2018-03-31T13:08:49.521Z,76.40
2018-03-31T13:11:16.367Z,76.48
2018-03-31T13:13:43.022Z,77.08
2018-03-31T13:16:09.575Z,77.76
2018-03-31T13:18:36.235Z,78.28
2018-03-31T13:21:03.467Z,78.33
2018-03-31T13:23:29.947Z,79.28
2018-03-31T13:25:56.463Z,78.87
2018-03-31T13:28:22.937Z,79.64
2018-03-31T13:30:49.415Z,79.59
2018-03-31T13:33:16.073Z,78.56
2018-03-31T13:35:42.563Z,79.51
2018-03-31T13:38:09.063Z,79.92
2018-03-31T13:40:35.635Z,80.53
2018-03-31T13:43:02.115Z,78.98
2018-03-31T13:45:29.388Z,79.84
2018-03-31T13:47:56.092Z,81.17
2018-03-31T13:50:22.624Z,80.29
2018-03-31T13:52:49.102Z,81.14
2018-03-31T13:55:15.788Z,80.87
2018-03-31T13:57:42.272Z,81.89
2018-03-31T14:00:08.751Z,81.35
2018-03-31T14:02:35.436Z,80.78
2018-03-31T14:05:01.922Z,81.08
2018-03-31T14:07:28.407Z,81.66
2018-03-31T14:09:55.779Z,82.11
2018-03-31T14:12:22.279Z,82.56
2018-03-31T14:14:48.759Z,82.20
2018-03-31T14:17:15.443Z,81.89
2018-03-31T14:19:41.959Z,82.04
2018-03-31T14:22:08.452Z,81.36
2018-03-31T14:24:35.725Z,81.05
2018-03-31T14:27:02.222Z,81.61
2018-03-31T14:29:28.700Z,82.17
2018-03-31T14:31:55.458Z,82.55
2018-03-31T14:34:21.942Z,81.92
2018-03-31T14:36:49.188Z,80.94
2018-03-31T14:39:15.864Z,81.55
2018-03-31T20:18:16.486Z,79.89
2018-03-31T20:20:42.971Z,80.31
2018-03-31T20:23:10.235Z,79.15
2018-03-31T20:25:36.770Z,79.06
2018-03-31T20:28:03.245Z,78.68
2018-03-31T20:30:29.766Z,79.16
2018-03-31T20:32:56.298Z,78.94
2018-03-31T20:35:22.813Z,78.84
2018-03-31T20:37:49.305Z,79.26
2018-03-31T20:40:16.285Z,78.92
2018-03-31T20:42:43.491Z,78.73
2018-03-31T20:45:11.032Z,79.41
2018-03-31T20:47:37.608Z,78.82
2018-03-31T20:50:04.124Z,78.93
2018-03-31T20:52:30.608Z,79.18
2018-03-31T20:54:58.003Z,79.02
2018-03-31T20:57:24.476Z,78.95
2018-03-31T20:59:50.958Z,78.29
2018-03-31T21:02:17.627Z,78.59
2018-03-31T21:04:44.115Z,78.70
2018-03-31T21:07:10.602Z,78.57
2018-03-31T21:09:37.391Z,79.17
2018-03-31T21:12:04.621Z,78.85
2018-03-31T21:14:31.106Z,78.98
2018-03-31T21:16:57.942Z,78.81
2018-03-31T21:19:24.485Z,78.73
2018-03-31T21:21:50.969Z,78.60
2018-03-31T21:24:17.635Z,78.70
2018-03-31T21:26:44.896Z,78.98
2018-03-31T21:29:12.146Z,78.95
2018-03-31T21:31:39.421Z,79.19
2018-03-31T21:34:05.951Z,79.18
2018-03-31T21:36:32.422Z,79.33
2018-03-31T21:38:58.926Z,79.77
2018-03-31T21:41:25.387Z,80.07
2018-03-31T21:43:51.864Z,80.42
2018-03-31T21:46:18.502Z,80.46
2018-03-31T21:48:45.725Z,80.76
2018-03-31T21:51:12.242Z,80.93
2018-03-31T21:53:38.938Z,81.34
2018-03-31T21:56:06.201Z,81.41
2018-03-31T21:58:33.460Z,81.87
2018-03-31T22:01:00.813Z,81.82
2018-03-31T22:03:27.326Z,81.50
2018-03-31T22:05:53.807Z,81.37
2018-03-31T22:08:20.422Z,81.53
2018-03-31T22:10:47.634Z,81.65
2018-03-31T22:13:20.092Z,81.51
2018-03-31T22:15:48.648Z,81.38
2018-03-31T22:18:15.336Z,81.40
2018-03-31T22:20:41.967Z,81.75
2018-03-31T22:23:08.628Z,81.42
2018-03-31T22:25:35.142Z,81.42
2018-03-31T22:28:01.669Z,81.31
2018-03-31T22:30:28.282Z,81.32
2018-03-31T22:32:54.811Z,81.26
2018-03-31T22:35:22.043Z,80.99
2018-03-31T22:37:49.419Z,81.01
2018-03-31T22:40:16.638Z,81.09
2018-03-31T22:42:43.114Z,81.25
2018-03-31T22:45:09.708Z,81.20
2018-03-31T22:47:36.175Z,81.13
2018-03-31T22:50:03.393Z,81.19
2018-03-31T22:52:29.956Z,81.34
2018-03-31T22:54:57.173Z,80.94
2018-03-31T22:57:23.653Z,81.40
2018-03-31T22:59:50.213Z,81.16
2018-03-31T23:02:16.749Z,80.24
2018-03-31T23:04:43.272Z,80.76
2018-03-31T23:07:10.541Z,80.99
2018-03-31T23:09:37.081Z,80.98
2018-03-31T23:12:03.617Z,80.70
2018-03-31T23:14:30.312Z,81.11
2018-03-31T23:16:56.828Z,81.17
2018-03-31T23:19:23.348Z,81.41
2018-03-31T23:21:50.029Z,81.08
2018-03-31T23:24:16.511Z,81.63
2018-03-31T23:26:43.000Z,81.62
2018-03-31T23:29:10.409Z,81.35
2018-03-31T23:31:36.870Z,81.37
2018-03-31T23:34:03.346Z,81.45
2018-03-31T23:36:30.702Z,81.55
2018-03-31T23:38:57.921Z,81.87
2018-03-31T23:41:24.453Z,81.75
2018-03-31T23:43:51.108Z,82.41
2018-03-31T23:46:17.612Z,82.03
2018-03-31T23:48:44.087Z,82.15
2018-03-31T23:51:10.820Z,82.07
2018-03-31T23:53:37.286Z,82.16
2018-03-31T23:56:04.552Z,82.21
2018-03-31T23:58:31.065Z,82.51
